createdAt,value
2022-09-17T00:01:22.629Z,12.84
2022-09-17T00:03:52.465Z,12.79
2022-09-17T00:06:20.523Z,12.73
2022-09-17T00:08:48.597Z,12.75
2022-09-17T00:11:21.029Z,12.72
2022-09-17T00:13:49.820Z,12.96
2022-09-17T00:16:25.883Z,12.95
2022-09-17T00:18:54.125Z,13.19
2022-09-17T00:21:22.871Z,13.16
2022-09-17T00:23:54.714Z,13.18
2022-09-17T00:26:22.598Z,13.16
2022-09-17T00:28:51.647Z,13.24
2022-09-17T00:31:19.513Z,13.22
2022-09-17T00:33:48.765Z,13.02
2022-09-17T00:36:16.618Z,12.92
2022-09-17T00:38:44.556Z,12.88
2022-09-17T00:41:12.277Z,12.87
2022-09-17T00:43:43.537Z,12.87
2022-09-17T00:46:23.140Z,12.76
2022-09-17T00:48:53.408Z,12.79
2022-09-17T00:51:26.600Z,12.74
2022-09-17T00:53:54.397Z,12.71
2022-09-17T00:56:25.552Z,12.75
2022-09-17T00:58:54.462Z,12.79
2022-09-17T01:01:22.784Z,13.01
2022-09-17T01:03:52.337Z,12.89
2022-09-17T01:06:28.274Z,12.62
2022-09-17T01:09:19.658Z,12.53
2022-09-17T01:12:02.226Z,12.39
2022-09-17T01:14:44.326Z,12.38
2022-09-17T01:17:19.777Z,12.25
2022-09-17T01:20:16.582Z,12.21
2022-09-17T01:22:58.150Z,11.99
2022-09-17T01:25:31.174Z,11.97
2022-09-17T01:28:33.885Z,11.95
2022-09-17T01:31:23.709Z,11.92
2022-09-17T01:34:01.450Z,11.99
2022-09-17T01:36:57.382Z,11.93
2022-09-17T01:39:34.716Z,11.81
2022-09-17T01:42:12.815Z,11.77
2022-09-17T01:44:51.720Z,11.76
2022-09-17T01:47:23.966Z,11.91
2022-09-17T01:49:54.865Z,11.99
2022-09-17T01:52:24.266Z,12.10
2022-09-17T01:54:57.865Z,12.37
2022-09-17T01:57:30.365Z,12.38
2022-09-17T02:00:02.815Z,12.35
2022-09-17T02:02:36.630Z,12.07
2022-09-17T02:05:09.499Z,11.79
2022-09-17T02:07:42.949Z,11.59
2022-09-17T02:10:13.296Z,11.63
2022-09-17T02:12:44.979Z,11.55
2022-09-17T02:15:17.886Z,11.46
2022-09-17T02:17:50.898Z,11.48
2022-09-17T02:20:22.940Z,11.59
2022-09-17T02:22:57.184Z,11.71
2022-09-17T02:25:29.743Z,11.75
2022-09-17T02:28:03.623Z,11.86
2022-09-17T02:30:32.099Z,11.84
2022-09-17T02:33:02.926Z,11.65
2022-09-17T02:35:32.038Z,11.50
2022-09-17T02:37:59.815Z,11.52
2022-09-17T02:40:32.752Z,11.55
2022-09-17T02:43:11.962Z,11.52
2022-09-17T02:45:50.478Z,11.62
2022-09-17T02:48:40.906Z,11.38
2022-09-17T02:51:33.606Z,11.19
2022-09-17T02:54:11.894Z,11.16
2022-09-17T02:56:47.833Z,11.21
2022-09-17T02:59:22.293Z,11.30
2022-09-17T03:01:56.358Z,11.37
2022-09-17T03:04:28.888Z,11.52
2022-09-17T03:06:58.622Z,11.58
2022-09-17T03:09:26.464Z,11.51
2022-09-17T03:11:54.195Z,11.50
2022-09-17T03:14:21.901Z,11.46
2022-09-17T03:16:49.670Z,11.39
2022-09-17T03:19:17.425Z,11.27
2022-09-17T03:21:46.802Z,11.35
2022-09-17T03:24:14.482Z,11.38
2022-09-17T03:26:42.240Z,11.26
2022-09-17T03:29:10.001Z,11.22
2022-09-17T03:31:37.842Z,11.08
2022-09-17T03:34:05.797Z,11.02
2022-09-17T03:36:33.466Z,11.11
2022-09-17T03:39:02.677Z,11.36
2022-09-17T03:41:30.362Z,11.62
2022-09-17T03:43:58.166Z,11.74
2022-09-17T03:46:26.030Z,11.74
2022-09-17T03:48:53.867Z,11.76
2022-09-17T03:51:21.635Z,11.74
2022-09-17T03:53:49.638Z,11.54
2022-09-17T03:56:18.766Z,11.36
2022-09-17T03:58:46.588Z,11.27
2022-09-17T04:01:14.752Z,11.16
2022-09-17T04:03:42.597Z,11.07
2022-09-17T04:06:10.309Z,10.81
2022-09-17T04:08:38.038Z,10.68
2022-09-17T04:11:07.767Z,10.57
2022-09-17T04:13:37.248Z,10.77
2022-09-17T04:16:05.338Z,10.91
2022-09-17T04:18:33.274Z,11.20
2022-09-17T04:21:01.200Z,11.19
2022-09-17T04:23:28.949Z,11.36
2022-09-17T04:25:56.643Z,11.34
2022-09-17T04:28:24.424Z,11.09
2022-09-17T04:30:53.567Z,11.19
2022-09-17T04:33:21.337Z,11.13
2022-09-17T04:35:49.315Z,11.02
2022-09-17T04:38:18.618Z,10.74
2022-09-17T04:40:46.957Z,10.67
2022-09-17T04:43:15.001Z,10.50
2022-09-17T04:45:42.711Z,10.48
2022-09-17T04:48:11.765Z,10.31
2022-09-17T04:50:39.485Z,10.28
2022-09-17T04:53:07.228Z,10.29
2022-09-17T04:55:34.943Z,10.21
2022-09-17T04:58:02.677Z,10.28
2022-09-17T05:00:30.880Z,10.25
2022-09-17T05:02:58.731Z,10.40
2022-09-17T05:05:28.042Z,10.62
2022-09-17T05:07:55.745Z,10.55
2022-09-17T05:10:24.610Z,10.49
2022-09-17T05:12:53.225Z,10.32
2022-09-17T05:15:21.409Z,10.22
2022-09-17T05:17:49.122Z,10.07
2022-09-17T05:20:18.000Z,10.11
2022-09-17T05:22:48.949Z,10.28
2022-09-17T05:25:18.234Z,10.38
2022-09-17T05:27:46.365Z,10.33
2022-09-17T05:30:14.363Z,10.33
2022-09-17T05:32:42.363Z,10.28
2022-09-17T05:35:11.248Z,10.14
2022-09-17T05:37:39.054Z,10.04
2022-09-17T05:40:10.897Z,10.06
2022-09-17T05:42:38.807Z,10.02
2022-09-17T05:45:08.033Z,10.10
2022-09-17T05:47:36.278Z,10.18
2022-09-17T05:50:04.346Z,10.07
2022-09-17T05:52:32.427Z,9.99
2022-09-17T05:55:00.209Z,9.96
2022-09-17T05:57:31.398Z,10.04
2022-09-17T05:59:59.383Z,10.19
2022-09-17T06:02:27.084Z,10.24
2022-09-17T06:04:55.301Z,10.18
2022-09-17T06:07:23.006Z,10.24
2022-09-17T06:09:50.706Z,10.34
2022-09-17T06:12:18.457Z,10.43
2022-09-17T06:14:47.804Z,10.41
2022-09-17T06:17:17.973Z,10.41
2022-09-17T06:19:49.247Z,10.44
2022-09-17T06:22:19.251Z,10.62
2022-09-17T06:24:47.032Z,10.94
2022-09-17T06:27:15.001Z,11.14
2022-09-17T06:29:42.697Z,11.31
2022-09-17T06:32:13.023Z,11.43
2022-09-17T06:34:40.912Z,11.41
2022-09-17T06:37:08.670Z,11.57
2022-09-17T06:39:36.743Z,11.60
2022-09-17T06:42:04.673Z,11.58
2022-09-17T06:44:32.350Z,11.70
2022-09-17T06:47:00.318Z,11.78
2022-09-17T06:49:31.107Z,11.74
2022-09-17T06:51:58.983Z,11.64
2022-09-17T06:54:26.770Z,11.76
2022-09-17T06:56:54.494Z,11.81
2022-09-17T06:59:22.320Z,11.79
2022-09-17T07:01:50.115Z,12.03
2022-09-17T07:04:18.933Z,12.13
2022-09-17T07:06:48.145Z,12.24
2022-09-17T07:09:15.943Z,12.31
2022-09-17T07:11:43.761Z,12.36
2022-09-17T07:14:11.785Z,12.54
2022-09-17T07:16:39.525Z,12.69
2022-09-17T07:19:08.979Z,12.82
2022-09-17T07:21:36.790Z,12.83
2022-09-17T07:24:06.351Z,12.89
2022-09-17T07:26:34.111Z,13.06
2022-09-17T07:29:01.860Z,13.07
2022-09-17T07:31:29.685Z,13.10
2022-09-17T07:33:57.414Z,13.06
2022-09-17T07:36:25.172Z,13.05
2022-09-17T07:38:52.870Z,13.19
2022-09-17T07:41:21.984Z,13.36
2022-09-17T07:43:49.794Z,13.48
2022-09-17T07:46:19.385Z,13.61
2022-09-17T07:48:47.802Z,13.68
2022-09-17T07:51:17.466Z,13.84
2022-09-17T07:53:45.648Z,14.00
2022-09-17T07:56:13.554Z,14.20
2022-09-17T07:58:42.842Z,14.44
2022-09-17T08:01:12.778Z,14.65
2022-09-17T08:03:41.209Z,14.87
2022-09-17T08:06:10.470Z,15.05
2022-09-17T08:08:39.468Z,15.23
2022-09-17T08:11:09.978Z,15.34
2022-09-17T08:13:38.110Z,15.29
2022-09-17T08:16:10.095Z,15.12
2022-09-17T08:18:38.045Z,15.44
2022-09-17T08:21:07.468Z,15.70
2022-09-17T08:23:37.439Z,15.78
2022-09-17T08:26:06.093Z,15.78
2022-09-17T08:28:34.024Z,15.81
2022-09-17T08:31:03.402Z,15.88
2022-09-17T08:33:33.926Z,16.03
2022-09-17T08:36:02.245Z,16.15
2022-09-17T08:38:37.195Z,16.29
2022-09-17T08:41:22.111Z,16.42
2022-09-17T08:43:58.315Z,16.41
2022-09-17T08:46:27.633Z,16.28
2022-09-17T08:49:06.641Z,16.29
2022-09-17T08:51:44.701Z,16.65
2022-09-17T08:54:19.630Z,16.42
2022-09-17T08:56:57.547Z,16.65
2022-09-17T08:59:32.557Z,16.64
2022-09-17T09:02:08.311Z,16.91
2022-09-17T09:04:59.591Z,16.89
2022-09-17T09:07:30.322Z,16.87
2022-09-17T09:10:09.529Z,17.04
2022-09-17T09:12:38.915Z,16.87
2022-09-17T09:15:18.300Z,16.89
2022-09-17T09:17:50.938Z,16.86
2022-09-17T09:20:29.861Z,16.99
2022-09-17T09:22:59.162Z,17.22
2022-09-17T09:25:32.226Z,17.50
2022-09-17T09:28:12.198Z,17.22
2022-09-17T09:30:51.597Z,17.46
2022-09-17T09:33:25.233Z,17.61
2022-09-17T09:35:54.449Z,17.79
2022-09-17T09:38:32.310Z,18.02
2022-09-17T09:41:08.879Z,17.94
2022-09-17T09:44:02.653Z,17.93
2022-09-17T09:46:44.486Z,17.91
2022-09-17T09:49:23.764Z,17.83
2022-09-17T09:52:06.642Z,18.17
2022-09-17T09:54:49.140Z,18.07
2022-09-17T09:57:19.981Z,18.24
2022-09-17T09:59:47.796Z,18.16
2022-09-17T10:02:15.604Z,18.10
2022-09-17T10:04:43.462Z,18.50
2022-09-17T10:07:12.961Z,18.57
2022-09-17T10:09:47.394Z,18.06
2022-09-17T10:12:19.284Z,17.95
2022-09-17T10:14:47.734Z,18.08
2022-09-17T10:17:23.529Z,18.34
2022-09-17T10:20:17.307Z,18.44
2022-09-17T10:22:49.964Z,18.68
2022-09-17T10:25:31.427Z,18.53
2022-09-17T10:28:01.859Z,18.67
2022-09-17T10:30:29.673Z,19.06
2022-09-17T10:33:21.292Z,19.03
2022-09-17T10:35:58.309Z,19.24
2022-09-17T10:38:36.557Z,19.29
2022-09-17T10:41:16.751Z,19.17
2022-09-17T10:43:45.065Z,19.28
2022-09-17T10:46:17.785Z,19.46
2022-09-17T10:48:57.378Z,19.40
2022-09-17T10:51:26.789Z,19.30
2022-09-17T10:54:16.173Z,18.99
2022-09-17T10:56:48.422Z,18.77
2022-09-17T10:59:45.051Z,19.04
2022-09-17T11:02:40.496Z,18.92
2022-09-17T11:05:29.219Z,19.64
2022-09-17T11:08:07.144Z,19.65
2022-09-17T11:10:42.477Z,19.50
2022-09-17T11:13:25.790Z,19.18
2022-09-17T11:16:16.170Z,18.95
2022-09-17T11:18:46.601Z,18.57
2022-09-17T11:21:41.265Z,18.71
2022-09-17T11:24:46.633Z,18.70
2022-09-17T11:27:35.833Z,18.70
2022-09-17T11:30:11.364Z,18.84
2022-09-17T11:32:54.653Z,18.57
2022-09-17T11:35:26.633Z,18.60
2022-09-17T11:38:02.414Z,18.73
2022-09-17T11:40:41.025Z,18.83
2022-09-17T11:43:19.575Z,18.95
2022-09-17T11:45:57.783Z,18.95
2022-09-17T11:48:32.923Z,18.69
2022-09-17T11:51:07.916Z,18.80
2022-09-17T11:53:39.286Z,18.69
2022-09-17T11:56:16.744Z,18.66
2022-09-17T11:58:52.358Z,18.98
2022-09-17T12:01:28.435Z,19.19
2022-09-17T12:04:01.076Z,19.03
2022-09-17T12:06:38.158Z,19.00
2022-09-17T12:09:14.638Z,19.26
2022-09-17T12:11:48.281Z,19.26
2022-09-17T12:14:24.520Z,19.46
2022-09-17T12:16:58.522Z,19.66
2022-09-17T12:19:32.160Z,19.60
2022-09-17T12:22:07.108Z,19.51
2022-09-17T12:24:34.949Z,19.40
2022-09-17T12:27:15.577Z,19.12
2022-09-17T12:30:10.589Z,19.81
2022-09-17T12:33:03.940Z,20.12
2022-09-17T12:36:05.225Z,19.93
2022-09-17T12:38:53.696Z,19.72
2022-09-17T12:41:25.555Z,19.67
2022-09-17T12:44:07.535Z,19.72
2022-09-17T12:46:55.518Z,19.96
2022-09-17T12:49:50.193Z,20.24
2022-09-17T12:52:31.434Z,20.89
2022-09-17T12:55:15.682Z,20.65
2022-09-17T12:57:53.178Z,20.55
2022-09-17T13:00:21.513Z,20.46
2022-09-17T13:03:00.465Z,20.40
2022-09-17T13:05:57.106Z,20.48
2022-09-17T13:08:52.728Z,20.34
2022-09-17T13:11:43.734Z,20.08
2022-09-17T13:14:20.093Z,20.23
2022-09-17T13:16:54.662Z,20.60
2022-09-17T13:19:40.610Z,20.71
2022-09-17T13:22:19.503Z,20.68
2022-09-17T13:24:49.406Z,20.82
2022-09-17T13:27:24.316Z,21.02
2022-09-17T13:30:05.578Z,21.44
2022-09-17T13:32:51.173Z,21.81
2022-09-17T13:35:53.346Z,21.82
2022-09-17T13:38:24.329Z,21.26
2022-09-17T13:40:53.277Z,21.27
2022-09-17T13:43:27.067Z,20.73
2022-09-17T13:46:12.759Z,21.02
2022-09-17T13:48:50.532Z,21.00
2022-09-17T13:52:00.794Z,21.19
2022-09-17T13:54:39.696Z,21.38
2022-09-17T13:57:13.671Z,21.37
2022-09-17T13:59:54.574Z,21.29
2022-09-17T14:02:37.746Z,21.72
2022-09-17T14:05:26.501Z,21.61
2022-09-17T14:08:12.872Z,21.60
2022-09-17T14:10:47.076Z,21.59
2022-09-17T14:13:28.001Z,21.62
2022-09-17T14:16:03.943Z,21.57
2022-09-17T14:18:38.384Z,21.17
2022-09-17T14:21:14.481Z,21.13
2022-09-17T14:23:47.430Z,21.19
2022-09-17T14:26:26.782Z,21.01
2022-09-17T14:29:03.537Z,20.73
2022-09-17T14:31:35.745Z,20.93
2022-09-17T14:34:05.800Z,21.00
2022-09-17T14:36:38.724Z,20.97
2022-09-17T14:39:11.585Z,21.10
2022-09-17T14:41:45.721Z,20.83
2022-09-17T14:44:16.562Z,21.14
2022-09-17T14:46:50.204Z,20.77
2022-09-17T14:49:22.749Z,21.04
2022-09-17T14:51:51.030Z,21.21
2022-09-17T14:54:24.861Z,20.69
2022-09-17T14:57:01.453Z,20.66
2022-09-17T14:59:47.136Z,20.86
2022-09-17T15:02:30.236Z,20.79
2022-09-17T15:04:58.573Z,21.03
2022-09-17T15:07:26.478Z,20.95
2022-09-17T15:09:56.070Z,20.79
2022-09-17T15:12:30.756Z,20.95
2022-09-17T15:14:59.378Z,21.01
2022-09-17T15:17:27.218Z,21.09
2022-09-17T15:19:58.433Z,21.06
2022-09-17T15:22:30.686Z,20.81
2022-09-17T15:25:02.790Z,21.09
2022-09-17T15:27:35.766Z,21.10
2022-09-17T15:30:06.315Z,20.66
2022-09-17T15:32:34.731Z,20.78
2022-09-17T15:35:20.154Z,20.67
2022-09-17T15:38:11.598Z,20.75
2022-09-17T15:40:40.951Z,20.88
2022-09-17T15:43:18.597Z,20.34
2022-09-17T15:45:46.405Z,20.79
2022-09-17T15:48:25.836Z,20.67
2022-09-17T15:50:55.625Z,20.84
2022-09-17T15:53:26.073Z,20.77
2022-09-17T15:56:04.064Z,20.74
2022-09-17T15:58:38.850Z,20.78
2022-09-17T16:01:54.516Z,20.73
2022-09-17T16:04:24.853Z,20.40
2022-09-17T16:07:01.276Z,20.29
2022-09-17T16:09:49.839Z,20.30
2022-09-17T16:12:20.354Z,20.03
2022-09-17T16:14:51.678Z,20.04
2022-09-17T16:17:43.908Z,19.90
2022-09-17T16:20:17.618Z,19.90
2022-09-17T16:22:47.823Z,19.74
2022-09-17T16:25:16.394Z,19.70
2022-09-17T16:27:51.362Z,19.56
2022-09-17T16:30:22.515Z,19.63
2022-09-17T16:32:50.670Z,19.36
2022-09-17T16:35:20.322Z,19.53
2022-09-17T16:37:50.192Z,19.70
2022-09-17T16:40:18.413Z,19.48
2022-09-17T16:42:46.518Z,19.44
2022-09-17T16:45:14.570Z,19.33
2022-09-17T16:47:44.824Z,19.32
2022-09-17T16:50:14.978Z,18.94
2022-09-17T16:52:42.758Z,18.87
2022-09-17T16:55:11.617Z,18.97
2022-09-17T16:57:39.337Z,18.93
2022-09-17T17:00:11.284Z,18.93
2022-09-17T17:02:39.116Z,19.04
2022-09-17T17:05:10.524Z,18.85
2022-09-17T17:07:38.529Z,18.76
2022-09-17T17:10:08.950Z,18.78
2022-09-17T17:12:37.454Z,18.76
2022-09-17T17:15:06.902Z,18.58
2022-09-17T17:17:35.770Z,18.60
2022-09-17T17:20:05.682Z,18.61
2022-09-17T17:22:34.801Z,18.41
2022-09-17T17:25:02.556Z,18.54
2022-09-17T17:27:30.610Z,18.45
2022-09-17T17:29:58.426Z,18.47
2022-09-17T17:32:26.533Z,18.41
2022-09-17T17:34:54.696Z,18.39
2022-09-17T17:37:23.294Z,18.30
2022-09-17T17:39:52.393Z,18.19
2022-09-17T17:42:20.161Z,18.11
2022-09-17T17:44:48.423Z,17.88
2022-09-17T17:47:16.132Z,17.96
2022-09-17T17:49:44.485Z,17.73
2022-09-17T17:52:12.242Z,17.72
2022-09-17T17:54:39.978Z,17.80
2022-09-17T17:57:09.061Z,17.53
2022-09-17T17:59:36.746Z,17.59
2022-09-17T18:02:04.968Z,17.62
2022-09-17T18:04:32.790Z,17.51
2022-09-17T18:07:00.549Z,17.42
2022-09-17T18:09:28.362Z,17.29
2022-09-17T18:11:56.054Z,17.28
2022-09-17T18:14:25.193Z,17.22
2022-09-17T18:16:52.943Z,17.05
2022-09-17T18:19:21.124Z,16.87
2022-09-17T18:21:48.806Z,16.87
2022-09-17T18:24:16.586Z,16.81
2022-09-17T18:26:45.067Z,16.53
2022-09-17T18:29:13.984Z,16.52
2022-09-17T18:31:44.593Z,16.50
2022-09-17T18:34:14.430Z,16.44
2022-09-17T18:36:47.578Z,16.27
2022-09-17T18:39:57.338Z,16.24
2022-09-17T18:42:06.373Z,16.21
2022-09-17T18:44:34.133Z,16.03
2022-09-17T18:47:03.161Z,15.99
2022-09-17T18:49:30.897Z,16.00
2022-09-17T18:51:58.638Z,15.82
2022-09-17T18:54:26.408Z,15.95
2022-09-17T18:56:54.182Z,15.84
2022-09-17T18:59:21.889Z,15.77
2022-09-17T19:01:49.681Z,15.87
2022-09-17T19:04:18.795Z,15.80
2022-09-17T19:06:46.732Z,15.68
2022-09-17T19:09:14.543Z,15.63
2022-09-17T19:11:42.208Z,15.62
2022-09-17T19:14:11.716Z,15.60
2022-09-17T19:16:39.577Z,15.35
2022-09-17T19:19:07.328Z,15.40
2022-09-17T19:21:36.417Z,15.31
2022-09-17T19:24:04.577Z,15.41
2022-09-17T19:26:32.340Z,15.36
2022-09-17T19:29:01.267Z,15.22
2022-09-17T19:31:29.443Z,15.29
2022-09-17T19:33:58.425Z,15.16
2022-09-17T19:36:26.294Z,15.05
2022-09-17T19:38:58.705Z,15.05
2022-09-17T19:41:26.536Z,15.07
2022-09-17T19:43:56.799Z,14.99
2022-09-17T19:46:26.283Z,14.95
2022-09-17T19:48:55.598Z,14.96
2022-09-17T19:51:25.482Z,14.79
2022-09-17T19:53:53.704Z,14.78
2022-09-17T19:56:24.870Z,14.71
2022-09-17T19:58:52.710Z,14.58
2022-09-17T20:01:21.020Z,14.61
2022-09-17T20:03:49.204Z,14.68
2022-09-17T20:06:19.490Z,14.63
2022-09-17T20:08:48.150Z,14.71
2022-09-17T20:11:17.175Z,14.53
2022-09-17T20:13:46.332Z,14.54
2022-09-17T20:16:16.880Z,14.62
2022-09-17T20:18:44.831Z,14.54
2022-09-17T20:21:14.127Z,14.41
2022-09-17T20:23:42.005Z,14.40
2022-09-17T20:26:10.065Z,14.41
2022-09-17T20:28:37.861Z,14.43
2022-09-17T20:31:09.197Z,14.30
2022-09-17T20:33:37.118Z,14.19
2022-09-17T20:36:06.957Z,14.21
2022-09-17T20:41:23.302Z,14.31
2022-09-17T20:43:53.210Z,14.27
2022-09-17T20:46:28.634Z,14.27
2022-09-17T20:48:57.531Z,14.27
2022-09-17T20:51:26.996Z,14.25
2022-09-17T20:53:54.827Z,14.15
2022-09-17T20:56:24.429Z,14.11
2022-09-17T20:59:01.336Z,14.14
2022-09-17T21:01:34.514Z,14.05
2022-09-17T21:04:03.620Z,14.10
2022-09-17T21:06:33.001Z,14.10
2022-09-17T21:09:01.273Z,13.88
2022-09-17T21:11:30.887Z,13.91
2022-09-17T21:13:59.103Z,13.82
2022-09-17T21:16:27.062Z,13.87
2022-09-17T21:18:58.760Z,13.93
2022-09-17T21:21:27.226Z,13.89
2022-09-17T21:23:55.271Z,13.84
2022-09-17T21:26:25.049Z,13.86
2022-09-17T21:28:55.225Z,13.82
2022-09-17T21:31:28.412Z,13.85
2022-09-17T21:34:02.215Z,13.85
2022-09-17T21:36:32.312Z,13.89
2022-09-17T21:39:02.038Z,13.87
2022-09-17T21:41:30.478Z,13.84
2022-09-17T21:43:58.801Z,13.74
2022-09-17T21:46:28.181Z,13.69
2022-09-17T21:48:57.509Z,13.65
2022-09-17T21:51:30.331Z,13.80
2022-09-17T21:54:00.539Z,13.73
2022-09-17T21:56:29.329Z,13.45
2022-09-17T21:58:59.259Z,13.14
2022-09-17T22:01:31.029Z,13.05
2022-09-17T22:04:00.123Z,12.97
2022-09-17T22:06:30.913Z,12.87
2022-09-17T22:09:00.987Z,12.88
2022-09-17T22:11:31.243Z,12.95
2022-09-17T22:14:04.937Z,13.00
2022-09-17T22:16:35.912Z,12.93
2022-09-17T22:19:04.936Z,12.85
2022-09-17T22:21:36.335Z,12.85
2022-09-17T22:24:05.670Z,12.69
2022-09-17T22:26:35.817Z,12.52
2022-09-17T22:29:06.341Z,12.53
2022-09-17T22:31:34.226Z,12.44
2022-09-17T22:34:02.669Z,12.31
2022-09-17T22:36:30.523Z,12.31
2022-09-17T22:38:59.932Z,12.34
2022-09-17T22:41:29.468Z,12.39
2022-09-17T22:43:58.907Z,12.46
2022-09-17T22:46:28.233Z,12.40
2022-09-17T22:48:56.183Z,12.45
2022-09-17T22:51:24.573Z,12.52
2022-09-17T22:53:52.656Z,12.41
2022-09-17T22:56:24.089Z,12.37
2022-09-17T22:58:52.498Z,12.28
2022-09-17T23:01:22.358Z,12.14
2022-09-17T23:03:52.150Z,12.27
2022-09-17T23:06:23.696Z,12.31
2022-09-17T23:08:51.846Z,12.29
2022-09-17T23:11:22.989Z,12.24
2022-09-17T23:13:52.218Z,12.17
2022-09-17T23:16:20.976Z,12.20
2022-09-17T23:18:48.702Z,12.17
2022-09-17T23:21:17.821Z,12.17
2022-09-17T23:23:47.533Z,12.24
2022-09-17T23:26:17.313Z,12.43
2022-09-17T23:28:46.401Z,12.38
2022-09-17T23:31:16.268Z,12.25
2022-09-17T23:33:44.644Z,11.96
2022-09-17T23:36:14.357Z,11.77
2022-09-17T23:38:42.677Z,11.50
2022-09-17T23:41:12.475Z,11.29
2022-09-17T23:43:40.620Z,11.16
2022-09-17T23:46:09.886Z,11.05
2022-09-17T23:48:37.642Z,11.07
2022-09-17T23:51:06.306Z,11.06
2022-09-17T23:53:34.990Z,10.99
2022-09-17T23:56:04.309Z,11.05
2022-09-17T23:58:32.245Z,11.14
